Baldwin Harbor, New York
Current Conditions -  °F | °C
As of 7:51 PM on Friday 19 Dec 2014 (Local Time) from KJFK Reporting Station
Broken Clouds Broken Clouds  
Wind Chill: 24°   Ceiling: 3500
Heat Index: 34°   Visibility: 10mi
Dew Point: 19°   Wind: 15mph
Humidity: 54%   Direction: 320°NW
Pressure: 30.17"   Gusts: NA
Location:  40.6539°N, 73.609°W
Report Text: KJFK 200051Z 32013KT 10SM BKN035 01/M07 A3017 RMK AO2 SLP215 T00111072 $
Loading
Personal Weather Stations






























Interactive Weather Map New forecast layout! Learn more

10-Day Weather Forecast

Advertisements
Track Severe Weather on mobile